Time;durP1;ratioP1;P1;durP2;ratioP2;P2;SDS_P1;SDS_P2;PMS_P1;PMS_P2;Temp;Humidity;BMP_temperature;BMP_pressure;BME280_temperature;BME280_humidity;BME280_pressure;Samples;Min_cycle;Max_cycle;Signal;HPM_P1;HPM_P2
2023/04/13 00:02:24;;;;;;;5.38;2.90;;;;;;;8.13;45.91;98642.81;5098864;28;20039;-70
2023/04/13 00:04:50;;;;;;;4.20;2.67;;;;;;;7.95;46.21;98634.56;5092875;28;20036;-70
2023/04/13 00:07:21;;;;;;;6.20;3.25;;;;;;;8.07;46.75;98633.03;5111198;28;20030;-70
2023/04/13 00:09:49;;;;;;;3.78;3.20;;;;;;;8.25;45.87;98637.31;5092751;28;20059;-70
2023/04/13 00:12:15;;;;;;;4.03;2.92;;;;;;;8.38;45.14;98623.44;5107512;28;20517;-70
2023/04/13 00:14:41;;;;;;;7.50;3.65;;;;;;;8.62;45.18;98631.13;5108067;28;20098;-70
2023/04/13 00:17:06;;;;;;;6.60;3.35;;;;;;;8.68;45.80;98640.91;5094353;28;20566;-70
2023/04/13 00:19:35;;;;;;;6.28;3.65;;;;;;;8.66;46.43;98628.47;5103299;28;20027;-70
2023/04/13 00:22:03;;;;;;;5.93;3.70;;;;;;;8.77;46.01;98628.88;5110198;28;20104;-70
2023/04/13 00:24:28;;;;;;;4.45;3.05;;;;;;;8.72;46.14;98632.69;5110886;28;20118;-70
2023/04/13 00:26:55;;;;;;;4.55;3.08;;;;;;;8.71;47.07;98636.63;5084980;28;20116;-71
2023/04/13 00:29:21;;;;;;;4.30;3.05;;;;;;;8.65;46.51;98632.41;5091001;28;20073;-71
2023/04/13 00:31:47;;;;;;;3.88;2.70;;;;;;;8.48;46.34;98633.34;5105861;28;20027;-70
2023/04/13 00:34:12;;;;;;;7.10;3.83;;;;;;;8.54;46.39;98638.41;5104407;28;20475;-70
2023/04/13 00:36:37;;;;;;;5.45;4.18;;;;;;;8.49;45.95;98644.19;5093018;28;20030;-69
2023/04/13 00:39:03;;;;;;;4.18;2.95;;;;;;;8.42;45.98;98647.50;5110951;28;20024;-69
2023/04/13 00:41:28;;;;;;;4.53;3.08;;;;;;;8.37;46.08;98642.13;5109662;28;20440;-70
2023/04/13 00:43:54;;;;;;;3.00;2.40;;;;;;;8.52;45.85;98640.72;5092895;28;20380;-69
2023/04/13 00:46:21;;;;;;;9.07;2.60;;;;;;;8.33;45.19;98640.38;5111121;28;20047;-70
2023/04/13 00:48:47;;;;;;;5.28;2.83;;;;;;;7.86;46.56;98645.78;5106729;28;20059;-70
2023/04/13 00:51:16;;;;;;;3.83;1.90;;;;;;;7.93;46.79;98642.47;5111092;28;20074;-70
2023/04/13 00:53:43;;;;;;;8.50;2.33;;;;;;;8.19;46.33;98637.88;5073061;28;20039;-70
2023/04/13 00:56:08;;;;;;;4.80;2.45;;;;;;;8.26;46.38;98650.09;5099188;28;20020;-70
2023/04/13 00:58:35;;;;;;;4.00;2.90;;;;;;;8.21;45.89;98644.75;5112532;28;20030;-69
2023/04/13 01:01:01;;;;;;;4.32;2.75;;;;;;;8.33;46.11;98648.75;5114551;28;20039;-69
2023/04/13 01:03:26;;;;;;;4.93;2.85;;;;;;;8.40;46.36;98644.25;5111817;28;20098;-69
2023/04/13 01:06:10;;;;;;;5.85;2.70;;;;;;;8.37;46.65;98650.50;5114871;28;20027;-69
2023/04/13 01:08:44;;;;;;;5.13;3.50;;;;;;;7.80;47.08;98646.31;5114620;28;20027;-70
2023/04/13 01:11:42;;;;;;;7.22;4.90;;;;;;;7.00;49.43;98654.19;5112529;28;20078;-69
2023/04/13 01:14:15;;;;;;;17.23;4.93;;;;;;;6.69;50.32;98652.44;5108210;28;20047;-70
2023/04/13 01:16:51;;;;;;;9.43;6.07;;;;;;;6.80;50.50;98648.16;5114035;28;20028;-69
2023/04/13 01:19:48;;;;;;;11.40;5.40;;;;;;;6.99;50.35;98646.97;5098140;28;20027;-69
2023/04/13 01:22:15;;;;;;;11.80;5.38;;;;;;;6.95;50.46;98649.63;5096018;28;20022;-69
2023/04/13 01:25:05;;;;;;;16.15;6.28;;;;;;;7.15;50.28;98652.81;5113793;28;20456;-69
2023/04/13 01:27:41;;;;;;;;;;;;;;;7.16;49.81;98646.09;5099323;28;20377;-69
2023/04/13 01:30:09;;;;;;;10.52;6.90;;;;;;;6.42;50.95;98655.22;5102530;28;19947;-70
2023/04/13 01:32:40;;;;;;;14.63;7.95;;;;;;;6.18;51.66;98655.72;5112772;28;20418;-69
2023/04/13 01:35:09;;;;;;;14.50;5.90;;;;;;;6.55;50.57;98663.72;5114140;28;20039;-70
2023/04/13 01:37:37;;;;;;;11.52;6.15;;;;;;;6.45;50.61;98649.00;5097817;28;20034;-69
2023/04/13 01:40:11;;;;;;;8.82;5.35;;;;;;;6.53;50.21;98650.16;5093765;28;20028;-70
2023/04/13 01:42:43;;;;;;;12.30;5.53;;;;;;;6.44;50.07;98661.25;5093989;28;20028;-70
2023/04/13 01:45:14;;;;;;;7.55;4.95;;;;;;;6.79;49.85;98660.44;5112623;28;20039;-70
2023/04/13 01:47:47;;;;;;;11.80;6.38;;;;;;;7.04;49.04;98660.72;5112008;28;20073;-70
2023/04/13 01:50:24;;;;;;;11.10;5.82;;;;;;;7.03;48.68;98661.84;5113744;28;20114;-70
2023/04/13 01:52:54;;;;;;;11.57;6.25;;;;;;;6.95;48.92;98671.03;5113356;28;20030;-70
2023/04/13 01:55:22;;;;;;;17.63;9.73;;;;;;;6.92;48.79;98666.13;5090564;28;20115;-69
2023/04/13 01:57:49;;;;;;;18.23;12.43;;;;;;;7.00;48.30;98668.88;5093787;28;20442;-70
2023/04/13 02:00:17;;;;;;;18.30;10.40;;;;;;;7.26;48.05;98672.75;5091758;28;20024;-70
2023/04/13 02:02:43;;;;;;;11.98;8.45;;;;;;;7.35;47.84;98664.38;5101439;28;20066;-70
2023/04/13 02:05:10;;;;;;;14.40;9.00;;;;;;;7.30;48.00;98676.50;5095365;28;20417;-69
2023/04/13 02:07:37;;;;;;;15.23;9.30;;;;;;;7.33;47.80;98675.81;5113508;28;20118;-69
2023/04/13 02:10:05;;;;;;;17.63;10.52;;;;;;;7.41;47.14;98669.41;5101972;28;20111;-69
2023/04/13 02:12:34;;;;;;;13.18;8.73;;;;;;;7.47;47.09;98680.34;5094745;28;20387;-70
2023/04/13 02:15:00;;;;;;;17.38;9.45;;;;;;;7.42;47.06;98679.41;5094436;28;20050;-70
2023/04/13 02:17:28;;;;;;;13.57;9.02;;;;;;;7.51;46.30;98675.78;5103452;28;20055;-70
2023/04/13 02:19:55;;;;;;;15.52;9.27;;;;;;;7.67;46.16;98679.63;5105407;28;20024;-70
2023/04/13 02:22:22;;;;;;;20.17;9.73;;;;;;;7.65;46.45;98676.34;5111312;28;20034;-70
2023/04/13 02:24:48;;;;;;;23.13;10.18;;;;;;;7.63;47.04;98677.84;5098337;28;20060;-69
2023/04/13 02:27:15;;;;;;;24.92;9.57;;;;;;;7.20;48.50;98676.84;5094714;28;20027;-69
2023/04/13 02:29:40;;;;;;;16.88;8.73;;;;;;;7.21;48.49;98678.47;5094869;28;20126;-69
2023/04/13 02:32:06;;;;;;;17.20;8.43;;;;;;;7.33;48.30;98673.03;5099144;28;20706;-70
2023/04/13 02:34:32;;;;;;;11.85;6.72;;;;;;;7.37;47.54;98674.03;5086196;28;20020;-69
2023/04/13 02:36:59;;;;;;;13.20;7.25;;;;;;;7.29;47.82;98670.09;5085721;28;20034;-71
2023/04/13 02:39:24;;;;;;;16.40;7.85;;;;;;;7.16;48.09;98666.41;5094422;28;20024;-69
2023/04/13 02:41:50;;;;;;;21.20;7.68;;;;;;;7.07;48.67;98675.94;5113033;28;20064;-69
2023/04/13 02:44:16;;;;;;;20.05;9.90;;;;;;;7.24;47.68;98677.81;5113028;28;20023;-70
2023/04/13 02:46:41;;;;;;;27.30;13.18;;;;;;;7.32;47.57;98673.41;5094733;28;20024;-69
2023/04/13 02:49:08;;;;;;;27.85;14.40;;;;;;;7.39;47.05;98674.50;5112758;28;20039;-69
2023/04/13 02:51:34;;;;;;;33.55;16.27;;;;;;;7.35;47.28;98681.88;5093632;28;20035;-71
2023/04/13 02:54:03;;;;;;;31.85;14.20;;;;;;;7.38;46.85;98675.66;5092281;28;20394;-69
2023/04/13 02:56:29;;;;;;;15.02;8.98;;;;;;;7.52;46.87;98682.97;5103858;28;20474;-70
2023/04/13 02:58:56;;;;;;;8.88;5.65;;;;;;;7.42;46.33;98676.63;5092212;28;20205;-70
2023/04/13 03:01:23;;;;;;;9.68;5.55;;;;;;;7.44;46.08;98684.63;5092386;28;20035;-70
2023/04/13 03:03:49;;;;;;;16.02;5.93;;;;;;;7.06;47.57;98686.22;5094183;28;20032;-69
2023/04/13 03:06:15;;;;;;;11.40;6.00;;;;;;;7.06;47.77;98686.22;5112276;28;20023;-70
2023/04/13 03:08:40;;;;;;;10.32;5.35;;;;;;;7.11;47.37;98682.44;5095394;28;20090;-69
2023/04/13 03:11:08;;;;;;;12.90;7.30;;;;;;;7.20;46.94;98685.19;5092206;28;20024;-69
2023/04/13 03:13:33;;;;;;;10.55;5.82;;;;;;;7.23;47.05;98682.56;5107517;28;20115;-69
2023/04/13 03:15:59;;;;;;;10.40;6.88;;;;;;;6.92;47.66;98677.25;5090072;28;20115;-69
2023/04/13 03:18:26;;;;;;;13.75;7.47;;;;;;;6.63;47.68;98687.09;5106475;28;20402;-69
2023/04/13 03:20:52;;;;;;;12.68;6.70;;;;;;;6.96;47.76;98689.34;5092920;28;20028;-69
2023/04/13 03:23:18;;;;;;;16.20;7.65;;;;;;;7.16;47.78;98694.22;5093754;28;20031;-70
2023/04/13 03:25:44;;;;;;;15.70;8.43;;;;;;;6.74;47.73;98680.03;5103278;28;20085;-70
2023/04/13 03:28:10;;;;;;;15.57;9.05;;;;;;;6.64;47.31;98688.75;5100007;28;20066;-70
2023/04/13 03:30:35;;;;;;;25.27;10.82;;;;;;;6.70;47.57;98684.63;5092884;28;20544;-70
2023/04/13 03:33:01;;;;;;;25.38;10.02;;;;;;;6.93;47.48;98690.00;5101201;28;20050;-69
2023/04/13 03:35:27;;;;;;;33.03;11.52;;;;;;;7.02;47.56;98690.81;5091545;28;20028;-69
2023/04/13 03:37:52;;;;;;;26.98;10.40;;;;;;;7.10;47.10;98691.94;5110215;28;20504;-69
2023/04/13 03:40:18;;;;;;;23.58;9.95;;;;;;;7.11;46.95;98686.03;5093412;28;20032;-69
2023/04/13 03:42:43;;;;;;;18.40;8.07;;;;;;;7.16;46.90;98694.22;5088468;28;20034;-69
2023/04/13 03:45:09;;;;;;;30.15;13.88;;;;;;;6.65;47.52;98707.06;5111177;28;20034;-70
2023/04/13 03:47:35;;;;;;;44.83;20.02;;;;;;;6.30;47.95;98708.66;5090834;28;20024;-70
2023/04/13 03:50:02;;;;;;;47.08;19.92;;;;;;;6.30;47.20;98707.84;5111663;28;20036;-69
2023/04/13 03:52:27;;;;;;;15.70;10.48;;;;;;;6.05;47.44;98704.69;5090232;28;20122;-70
2023/04/13 03:54:53;;;;;;;45.72;21.42;;;;;;;5.74;48.25;98695.28;5091283;28;20499;-69
2023/04/13 03:57:20;;;;;;;52.70;24.08;;;;;;;5.91;48.26;98707.56;5090491;28;20077;-69
2023/04/13 03:59:46;;;;;;;27.45;13.48;;;;;;;5.98;47.73;98698.78;5093567;28;20079;-70
2023/04/13 04:02:11;;;;;;;25.30;11.93;;;;;;;6.29;48.00;98712.59;5110157;28;20027;-69
2023/04/13 04:04:37;;;;;;;19.15;9.40;;;;;;;6.18;48.42;98709.28;5093553;28;20039;-69
2023/04/13 04:07:02;;;;;;;29.67;10.50;;;;;;;6.32;48.13;98711.94;5092814;28;20016;-70
2023/04/13 04:09:28;;;;;;;33.03;11.05;;;;;;;6.54;48.79;98712.94;5093427;28;20391;-69
2023/04/13 04:11:53;;;;;;;18.90;9.10;;;;;;;6.72;48.12;98716.53;5106915;28;20066;-70
2023/04/13 04:14:19;;;;;;;28.45;11.57;;;;;;;6.55;48.22;98710.97;5100336;28;20027;-69
2023/04/13 04:16:45;;;;;;;23.23;10.35;;;;;;;6.66;47.49;98711.47;5103485;28;20027;-70
2023/04/13 04:19:10;;;;;;;33.92;9.90;;;;;;;7.01;47.46;98708.66;5082335;28;20031;-70
2023/04/13 04:21:36;;;;;;;23.33;10.48;;;;;;;7.12;46.39;98725.78;5086891;28;20054;-69
2023/04/13 04:24:04;;;;;;;35.70;15.52;;;;;;;6.52;47.31;98719.94;5110702;28;20023;-75
2023/04/13 04:26:31;;;;;;;29.80;15.57;;;;;;;6.30;47.60;98724.50;5092668;28;20020;-72
2023/04/13 04:29:01;;;;;;;22.30;12.02;;;;;;;6.59;47.34;98735.00;5090232;28;20031;-73
2023/04/13 04:31:33;;;;;;;20.27;10.35;;;;;;;6.59;47.83;98736.97;5111248;28;20032;-81
2023/04/13 04:34:02;;;;;;;28.08;14.27;;;;;;;6.39;47.88;98744.78;5113811;28;20529;-77
2023/04/13 04:36:27;;;;;;;20.58;11.73;;;;;;;6.36;47.62;98739.88;5112821;28;20508;-77
2023/04/13 04:38:56;;;;;;;23.65;15.88;;;;;;;6.65;47.26;98751.53;5097500;28;20027;-75
2023/04/13 04:41:23;;;;;;;31.20;19.23;;;;;;;7.05;46.32;98744.94;5104036;28;20498;-78
2023/04/13 04:43:49;;;;;;;37.45;18.33;;;;;;;7.28;45.83;98748.34;5096272;28;20020;-76
2023/04/13 04:46:15;;;;;;;38.95;16.23;;;;;;;7.08;46.92;98752.63;5098135;28;20032;-73
2023/04/13 04:48:41;;;;;;;26.67;13.05;;;;;;;7.05;46.88;98751.31;5119182;28;20035;-73
2023/04/13 04:51:10;;;;;;;25.25;13.45;;;;;;;7.55;46.17;98754.66;5096547;28;20091;-75
2023/04/13 04:53:35;;;;;;;21.65;10.77;;;;;;;7.85;45.50;98757.50;5120577;27;20027;-74
2023/04/13 04:56:01;;;;;;;24.08;12.65;;;;;;;7.68;45.41;98748.06;5101283;27;20020;-74
2023/04/13 04:58:26;;;;;;;21.20;12.20;;;;;;;7.63;45.71;98753.81;5085051;28;20498;-72
2023/04/13 05:00:52;;;;;;;12.80;8.18;;;;;;;7.89;44.95;98758.47;5105755;27;20406;-72
2023/04/13 05:03:19;;;;;;;15.48;7.85;;;;;;;8.16;44.92;98761.91;5097809;28;20089;-78
2023/04/13 05:05:44;;;;;;;16.08;7.93;;;;;;;7.94;45.26;98760.25;5103283;28;20024;-72
2023/04/13 05:08:10;;;;;;;16.83;9.20;;;;;;;8.52;45.16;98759.78;5084721;27;20060;-73
2023/04/13 05:10:42;;;;;;;32.03;16.35;;;;;;;8.35;45.28;98755.91;5082858;28;20023;-74
2023/04/13 05:13:07;;;;;;;46.10;14.77;;;;;;;8.52;46.16;98763.38;5106133;28;20032;-73
2023/04/13 05:15:33;;;;;;;21.75;11.02;;;;;;;8.27;45.72;98754.00;5093994;28;20419;-73
2023/04/13 05:17:58;;;;;;;33.35;13.25;;;;;;;8.48;46.04;98758.78;5101247;28;20043;-72
2023/04/13 05:20:24;;;;;;;58.65;20.52;;;;;;;8.69;44.54;98761.63;5104218;28;20023;-73
2023/04/13 05:22:49;;;;;;;58.92;20.67;;;;;;;9.24;44.09;98762.47;5112370;28;20024;-73
2023/04/13 05:25:15;;;;;;;62.83;19.45;;;;;;;9.50;43.53;98768.91;5112890;28;20023;-73
2023/04/13 05:27:40;;;;;;;44.20;16.88;;;;;;;9.75;44.14;98763.38;5108748;28;20034;-74
2023/04/13 05:30:07;;;;;;;31.67;14.10;;;;;;;10.04;43.26;98761.56;5097376;28;20069;-73
2023/04/13 05:32:33;;;;;;;34.47;14.77;;;;;;;9.83;42.97;98768.88;5106412;28;20413;-73
2023/04/13 05:34:59;;;;;;;31.50;12.98;;;;;;;9.88;44.00;98770.59;5083808;28;20030;-73
2023/04/13 05:37:24;;;;;;;25.52;12.52;;;;;;;9.75;45.47;98772.59;5081067;28;20118;-73
2023/04/13 05:39:50;;;;;;;36.58;21.15;;;;;;;10.08;45.72;98777.28;5094278;28;20490;-73
2023/04/13 05:42:16;;;;;;;17.20;8.45;;;;;;;9.87;46.62;98766.19;5094949;28;20028;-73
2023/04/13 05:44:41;;;;;;;10.05;6.78;;;;;;;9.64;47.35;98763.81;5101889;28;20034;-78
2023/04/13 05:47:07;;;;;;;16.42;7.60;;;;;;;9.78;48.03;98755.13;5100584;28;20054;-78
2023/04/13 05:49:32;;;;;;;18.13;9.68;;;;;;;9.95;46.35;98761.66;5087706;28;20122;-72
2023/04/13 05:51:58;;;;;;;25.02;7.85;;;;;;;10.03;46.94;98757.94;5113356;28;20027;-73
2023/04/13 05:54:23;;;;;;;33.50;9.80;;;;;;;10.42;45.49;98753.97;5089020;28;20031;-76
2023/04/13 05:56:49;;;;;;;28.67;11.18;;;;;;;10.79;44.07;98760.31;5095645;28;20032;-75
2023/04/13 05:59:15;;;;;;;23.92;10.77;;;;;;;11.25;43.07;98750.84;5107845;27;20028;-75
2023/04/13 06:01:40;;;;;;;26.88;9.70;;;;;;;11.59;42.59;98754.16;5100284;28;20499;-78
2023/04/13 06:04:08;;;;;;;23.02;9.35;;;;;;;11.77;40.66;98745.41;5101698;27;20027;-77
2023/04/13 06:06:34;;;;;;;30.45;9.95;;;;;;;11.89;40.08;98745.31;5113571;28;20095;-73
2023/04/13 06:09:00;;;;;;;27.42;9.48;;;;;;;11.78;40.56;98747.03;5114603;28;20023;-77
2023/04/13 06:11:26;;;;;;;21.38;8.68;;;;;;;11.97;40.38;98748.31;5095480;28;20054;-81
2023/04/13 06:13:51;;;;;;;17.17;7.25;;;;;;;11.77;39.71;98745.41;5100498;27;20036;-74
2023/04/13 06:16:17;;;;;;;29.15;8.75;;;;;;;12.25;39.44;98748.22;5100937;28;20016;-76
2023/04/13 06:18:43;;;;;;;15.15;6.47;;;;;;;12.13;38.29;98751.13;5112607;28;20062;-80
2023/04/13 06:21:08;;;;;;;10.05;5.15;;;;;;;12.01;38.54;98757.59;5113336;28;20072;-73
2023/04/13 06:23:34;;;;;;;16.33;5.47;;;;;;;12.21;38.21;98744.50;5081483;28;20032;-72
2023/04/13 06:26:00;;;;;;;13.27;5.05;;;;;;;12.39;38.61;98756.13;5099335;28;20486;-79
2023/04/13 06:28:28;;;;;;;9.82;4.32;;;;;;;12.57;36.43;98750.16;5093117;28;20027;-73
2023/04/13 06:30:54;;;;;;;11.10;3.28;;;;;;;12.82;33.95;98755.50;5093382;28;20020;-77
2023/04/13 06:33:21;;;;;;;7.53;3.00;;;;;;;12.91;33.21;98747.66;5101823;27;20484;-73
2023/04/13 06:35:47;;;;;;;5.18;3.10;;;;;;;13.33;31.81;98746.91;5104283;28;20084;-72
2023/04/13 06:38:13;;;;;;;3.30;2.53;;;;;;;13.33;31.61;98744.09;5107639;27;20028;-73
2023/04/13 06:40:38;;;;;;;9.30;2.85;;;;;;;13.27;30.50;98739.16;5091476;28;20031;-72
2023/04/13 06:43:04;;;;;;;11.25;3.38;;;;;;;13.44;30.82;98737.91;5100703;28;20020;-71
2023/04/13 06:45:31;;;;;;;11.80;3.35;;;;;;;13.81;30.66;98734.56;5098018;28;20031;-79
2023/04/13 06:47:56;;;;;;;10.85;3.13;;;;;;;14.18;29.45;98731.16;5093844;28;20114;-75
2023/04/13 06:50:21;;;;;;;11.55;4.15;;;;;;;13.90;30.19;98735.13;5096482;28;20111;-73
2023/04/13 06:52:47;;;;;;;13.68;4.20;;;;;;;13.70;30.18;98727.94;5101984;28;20484;-75
2023/04/13 06:55:13;;;;;;;11.43;4.18;;;;;;;13.80;30.11;98730.13;5100249;28;20024;-74
2023/04/13 06:57:40;;;;;;;9.77;3.97;;;;;;;14.10;29.87;98737.03;5100810;28;20024;-73
2023/04/13 07:00:07;;;;;;;5.97;3.00;;;;;;;13.84;30.26;98730.19;5102093;28;20080;-76
2023/04/13 07:02:33;;;;;;;4.53;2.90;;;;;;;13.81;29.95;98730.91;5105189;28;20490;-72
2023/04/13 07:04:58;;;;;;;7.30;2.55;;;;;;;13.86;30.03;98731.41;5101907;28;20038;-78
2023/04/13 07:07:24;;;;;;;2.97;1.60;;;;;;;14.10;30.19;98729.41;5091041;28;20023;-75
2023/04/13 07:09:50;;;;;;;6.25;2.55;;;;;;;14.35;30.41;98731.00;5109466;28;20031;-73
2023/04/13 07:12:15;;;;;;;4.22;2.10;;;;;;;13.98;29.79;98723.97;5106208;28;20081;-72
2023/04/13 07:14:41;;;;;;;7.57;1.90;;;;;;;14.12;30.25;98720.59;5111002;28;20548;-71
2023/04/13 07:17:07;;;;;;;6.43;2.17;;;;;;;14.49;30.27;98724.78;5082566;28;20057;-71
2023/04/13 07:19:34;;;;;;;3.72;1.88;;;;;;;14.85;30.12;98722.50;5078499;28;20517;-79
2023/04/13 07:22:01;;;;;;;4.75;2.08;;;;;;;14.95;29.91;98718.97;5107496;28;20030;-78
2023/04/13 07:24:27;;;;;;;4.80;1.65;;;;;;;14.35;29.52;98714.91;5104046;28;20043;-82
2023/04/13 07:26:55;;;;;;;8.80;2.15;;;;;;;14.55;30.22;98726.06;5112295;28;20049;-83
2023/04/13 07:29:21;;;;;;;8.57;2.35;;;;;;;14.80;29.14;98720.81;5105356;28;20038;-81
2023/04/13 07:31:46;;;;;;;2.58;1.42;;;;;;;14.67;28.17;98713.78;5113762;28;20456;-80
2023/04/13 07:34:12;;;;;;;6.63;1.73;;;;;;;14.62;27.83;98728.16;5102901;28;20469;-78
2023/04/13 07:36:37;;;;;;;7.20;1.92;;;;;;;14.42;28.05;98715.03;5093263;28;20107;-77
2023/04/13 07:39:03;;;;;;;23.85;2.58;;;;;;;14.85;28.07;98714.84;5098922;28;20503;-74
2023/04/13 07:41:29;;;;;;;6.45;1.58;;;;;;;15.53;29.15;98714.00;5090375;28;20030;-71
2023/04/13 07:43:55;;;;;;;3.15;1.55;;;;;;;15.24;27.68;98715.69;5109702;28;20112;-72
2023/04/13 07:46:25;;;;;;;15.88;2.85;;;;;;;15.12;26.92;98709.13;5092264;28;20023;-72
2023/04/13 07:48:52;;;;;;;3.42;2.15;;;;;;;15.48;28.60;98711.53;5108872;28;20069;-74
2023/04/13 07:51:19;;;;;;;4.07;1.80;;;;;;;15.92;27.09;98712.78;5104358;28;20036;-70
2023/04/13 07:53:45;;;;;;;17.45;2.45;;;;;;;15.93;27.60;98713.59;5092990;28;20027;-69
2023/04/13 07:56:11;;;;;;;2.55;1.52;;;;;;;15.94;26.41;98718.81;5092950;28;20020;-68
2023/04/13 07:58:36;;;;;;;4.00;1.88;;;;;;;16.28;25.34;98713.03;5111299;28;20054;-72
2023/04/13 08:01:02;;;;;;;2.35;1.42;;;;;;;16.42;25.48;98709.53;5101696;28;20398;-70
2023/04/13 08:03:31;;;;;;;5.63;1.73;;;;;;;15.76;25.45;98707.34;5107692;28;20105;-69
2023/04/13 08:05:56;;;;;;;2.07;1.13;;;;;;;15.75;26.36;98705.75;5105469;28;20067;-71
2023/04/13 08:08:22;;;;;;;2.97;1.40;;;;;;;16.48;25.55;98707.13;5110856;28;20440;-71
2023/04/13 08:10:47;;;;;;;2.20;1.30;;;;;;;17.21;25.08;98694.16;5111349;28;20430;-74
2023/04/13 08:13:14;;;;;;;3.83;1.40;;;;;;;17.48;24.83;98690.19;5110996;28;20112;-74
2023/04/13 08:15:40;;;;;;;2.47;1.08;;;;;;;17.48;25.10;98690.19;5102410;28;20092;-73
2023/04/13 08:18:06;;;;;;;408.52;41.60;;;;;;;17.91;25.81;98701.53;5091835;28;20024;-72
2023/04/13 08:20:32;;;;;;;144.95;14.10;;;;;;;18.13;24.97;98683.78;5095170;28;20423;-72
2023/04/13 08:22:58;;;;;;;3.25;1.73;;;;;;;18.56;23.72;98683.69;5093217;28;20031;-71
2023/04/13 08:25:24;;;;;;;3.53;1.75;;;;;;;18.57;25.40;98690.97;5092083;28;20074;-70
2023/04/13 08:27:50;;;;;;;5.03;1.55;;;;;;;18.80;22.35;98686.84;5110565;28;20050;-71
2023/04/13 08:30:16;;;;;;;5.13;2.53;;;;;;;18.47;22.95;98683.34;5110974;28;20031;-73
2023/04/13 08:32:41;;;;;;;169.93;67.25;;;;;;;18.83;24.63;98680.38;5092754;28;20464;-73
2023/04/13 08:35:08;;;;;;;14.85;6.32;;;;;;;17.12;24.07;98679.59;5106017;28;20080;-75
2023/04/13 08:37:34;;;;;;;41.75;7.60;;;;;;;17.88;24.24;98676.88;5092492;28;20024;-76
2023/04/13 08:39:59;;;;;;;25.05;4.07;;;;;;;18.49;24.93;98672.41;5108437;28;20111;-75
2023/04/13 08:42:26;;;;;;;3.08;1.55;;;;;;;18.67;23.56;98670.31;5108712;28;20494;-72
2023/04/13 08:44:58;;;;;;;12.38;6.88;;;;;;;19.04;23.50;98673.03;5110392;28;20036;-71
2023/04/13 08:47:26;;;;;;;4.88;1.95;;;;;;;19.22;22.54;98672.94;5110447;28;20027;-73
2023/04/13 08:50:04;;;;;;;2.53;1.50;;;;;;;19.10;23.25;98676.22;5105969;28;20031;-73
2023/04/13 08:52:30;;;;;;;1036.38;98.20;;;;;;;19.09;22.41;98675.44;5104112;28;20466;-77
2023/04/13 08:54:57;;;;;;;51.53;9.20;;;;;;;19.43;22.92;98672.00;5108786;28;20084;-77
2023/04/13 08:57:23;;;;;;;121.68;14.20;;;;;;;19.61;23.69;98663.38;5108183;28;20459;-76
2023/04/13 08:59:51;;;;;;;14.32;3.53;;;;;;;19.77;23.54;98662.03;5091012;28;20479;-75
2023/04/13 09:02:22;;;;;;;7.82;1.40;;;;;;;20.12;22.54;98659.31;5110266;28;20029;-72
2023/04/13 09:04:51;;;;;;;20.63;14.20;;;;;;;20.15;21.32;98644.28;5110957;28;20034;-71
2023/04/13 09:07:25;;;;;;;7.97;3.95;;;;;;;19.92;21.44;98637.19;5097681;28;20075;-75
2023/04/13 09:09:55;;;;;;;5.57;2.22;;;;;;;19.86;22.07;98653.03;5104942;28;20100;-70
2023/04/13 09:12:20;;;;;;;3.78;2.00;;;;;;;19.86;22.37;98653.03;5110796;28;20048;-70
2023/04/13 09:14:46;;;;;;;28.88;4.07;;;;;;;19.91;23.15;98652.59;5079467;28;20172;-67
2023/04/13 09:17:41;;;;;;;5.43;1.88;;;;;;;19.84;22.88;98650.63;5107731;28;20031;-71
2023/04/13 09:20:21;;;;;;;2.35;1.48;;;;;;;19.54;22.44;98645.59;5095416;28;20039;-74
2023/04/13 09:22:50;;;;;;;4.47;1.70;;;;;;;19.21;23.06;98638.13;5099267;28;20065;-73
2023/04/13 09:25:20;;;;;;;4.22;1.98;;;;;;;19.36;24.46;98638.81;5093634;27;20418;-75
2023/04/13 09:27:45;;;;;;;4.88;2.30;;;;;;;19.97;23.63;98636.75;5082438;28;20483;-71
2023/04/13 09:30:12;;;;;;;5.47;2.20;;;;;;;20.37;23.91;98630.69;5093703;28;20031;-75
2023/04/13 09:32:37;;;;;;;6.25;2.30;;;;;;;20.40;21.78;98629.84;5094850;28;20034;-73
2023/04/13 09:35:07;;;;;;;14.85;10.38;;;;;;;20.65;23.76;98627.94;5109133;27;20016;-84
2023/04/13 09:37:40;;;;;;;7.03;3.38;;;;;;;21.11;23.62;98623.69;5086297;28;20020;-78
2023/04/13 09:40:10;;;;;;;4.43;1.92;;;;;;;21.25;22.77;98619.06;5094085;28;20589;-76
2023/04/13 09:42:56;;;;;;;7.05;4.88;;;;;;;21.32;22.49;98621.78;5114242;28;20035;-75
2023/04/13 09:45:22;;;;;;;12.80;5.57;;;;;;;21.78;21.87;98612.97;5103953;27;20043;-79
2023/04/13 09:47:47;;;;;;;6.43;2.78;;;;;;;21.84;23.24;98614.06;5090530;28;20055;-71
2023/04/13 09:50:17;;;;;;;2.88;2.05;;;;;;;21.75;22.75;98611.78;5102769;27;20454;-72
2023/04/13 09:52:44;;;;;;;2.22;1.55;;;;;;;21.93;23.61;98610.69;5102213;27;20031;-75
2023/04/13 09:55:16;;;;;;;6.43;2.05;;;;;;;22.11;23.03;98610.34;5099749;27;20024;-74
2023/04/13 09:57:42;;;;;;;3.63;2.15;;;;;;;22.00;23.39;98599.97;5104098;27;20103;-72
2023/04/13 10:00:14;;;;;;;29.38;3.95;;;;;;;20.81;23.39;98591.22;5102893;28;20340;-75
2023/04/13 10:02:40;;;;;;;24.48;3.13;;;;;;;21.32;24.49;98591.31;5106856;28;20540;-73
2023/04/13 10:05:08;;;;;;;7.93;1.65;;;;;;;21.17;23.13;98582.19;5101608;28;20036;-73
2023/04/13 10:07:36;;;;;;;8.85;1.90;;;;;;;21.59;24.19;98575.44;5090661;28;20016;-74
2023/04/13 10:10:02;;;;;;;29.35;4.05;;;;;;;21.79;24.07;98578.41;5105377;28;20092;-76
2023/04/13 10:12:30;;;;;;;10.23;2.25;;;;;;;22.14;23.41;98575.31;5100429;28;20119;-78
2023/04/13 10:15:21;;;;;;;5.20;2.25;;;;;;;22.42;22.75;98573.13;5087291;28;20016;-74
2023/04/13 10:18:11;;;;;;;3.97;1.98;;;;;;;22.39;22.90;98563.44;5088155;28;20134;-75
2023/04/13 10:20:37;;;;;;;;;;;;;;;21.80;22.19;98556.41;5093682;27;20450;-73
2023/04/13 10:23:04;;;;;;;5.75;1.75;;;;;;;22.08;22.81;98555.09;5085805;27;20279;-72
2023/04/13 10:25:30;;;;;;;5.38;2.25;;;;;;;21.49;23.64;98565.06;5099766;28;20020;-75
2023/04/13 10:27:59;;;;;;;2.80;1.92;;;;;;;21.91;24.21;98561.94;5106032;27;20141;-75
2023/04/13 10:30:26;;;;;;;4.80;2.85;;;;;;;22.12;23.85;98544.41;5110148;28;20031;-76
2023/04/13 10:33:09;;;;;;;2.45;1.77;;;;;;;22.45;23.44;98549.50;5105728;27;20032;-75
2023/04/13 10:35:36;;;;;;;10.35;1.90;;;;;;;22.02;24.35;98539.72;5095444;28;20506;-76
2023/04/13 10:38:02;;;;;;;5.35;1.80;;;;;;;22.11;24.51;98542.81;5098300;28;20050;-78
2023/04/13 10:40:27;;;;;;;2.47;1.85;;;;;;;21.70;23.25;98535.47;5100751;28;20027;-76
2023/04/13 10:42:53;;;;;;;2.92;2.08;;;;;;;21.43;24.71;98539.16;5091049;27;20020;-75
2023/04/13 10:45:24;;;;;;;4.88;2.50;;;;;;;21.89;24.04;98539.59;5076087;28;20114;-76
2023/04/13 10:47:51;;;;;;;9.10;2.80;;;;;;;21.79;24.17;98537.75;5103170;28;20031;-75
2023/04/13 10:50:26;;;;;;;2.28;2.03;;;;;;;21.83;23.26;98538.47;5087848;28;20028;-74
2023/04/13 10:52:54;;;;;;;1.95;1.55;;;;;;;22.21;22.90;98535.31;5096393;28;20058;-75
2023/04/13 10:55:22;;;;;;;22.33;10.45;;;;;;;22.83;22.89;98540.53;5109907;28;20038;-75
2023/04/13 10:57:48;;;;;;;3.13;1.92;;;;;;;23.02;23.17;98538.06;5104606;28;20059;-72
2023/04/13 11:00:20;;;;;;;2.53;2.08;;;;;;;22.93;24.09;98538.69;5108044;28;20066;-74
2023/04/13 11:02:48;;;;;;;4.43;2.22;;;;;;;22.17;23.84;98537.41;5086860;28;20516;-77
2023/04/13 11:05:23;;;;;;;5.72;4.13;;;;;;;22.93;23.27;98535.84;5106121;28;20084;-73
2023/04/13 11:07:49;;;;;;;3.55;2.35;;;;;;;23.09;23.03;98529.38;5102999;27;20038;-73
2023/04/13 11:10:22;;;;;;;4.80;1.77;;;;;;;23.12;24.07;98528.47;5079338;28;20093;-72
2023/04/13 11:12:50;;;;;;;2.22;2.03;;;;;;;22.69;23.75;98530.25;5109483;28;20052;-72
2023/04/13 11:15:23;;;;;;;3.97;2.17;;;;;;;23.33;23.42;98528.41;5082326;28;20062;-72
2023/04/13 11:17:51;;;;;;;3.80;1.95;;;;;;;23.73;22.26;98533.13;5103439;28;20413;-71
2023/04/13 11:20:16;;;;;;;2.97;1.85;;;;;;;23.46;22.81;98520.75;5098701;27;20031;-73
2023/04/13 11:22:42;;;;;;;2.50;1.88;;;;;;;22.92;22.10;98524.88;5104276;27;20405;-73
2023/04/13 11:25:08;;;;;;;8.93;2.80;;;;;;;23.44;22.71;98513.91;5084441;28;20074;-73
2023/04/13 11:27:34;;;;;;;5.45;3.15;;;;;;;23.40;21.98;98513.97;5108512;27;20032;-73
2023/04/13 11:30:05;;;;;;;5.32;2.15;;;;;;;23.39;22.16;98498.91;5095993;27;20020;-73
2023/04/13 11:32:34;;;;;;;4.80;2.65;;;;;;;22.90;22.56;98508.22;5077373;28;20027;-73
2023/04/13 11:35:09;;;;;;;4.60;2.80;;;;;;;23.75;22.57;98504.91;5094440;28;20111;-73